Главная страница
METAR-TAF:

METAR-TAF

Аэропорты :

Бермудские острова, Бермуды

широта: 32-22N, долгота: 064-41W, высота над уровнем моря: 6 м

Текущие метеонаблюдения

Эта сводка был подготовлена 38 минут назад, в 16:55 UTC
Ветер 16 Узел от западно-северо-западный
Температура 18°C
Влажность 56%
Давление 1019 hPa
Видимость 10 км и более
Отдельные облака на высоте 4500 фута
Рассеянная облачность на высоте 5400 фута

METAR: TXKF 191655Z 30016KT 9999 SCT045 BKN054 18/09 Q1019

Время: 13:33 (17:33 UTC)

Прогноз

Эта сводка был подготовлена 6 часа и 1 минут назад, в 11:32 UTC
Прогноз действительный с 19-го 12 UTC до 20-го 12 UTC
Ветер 18 Узел от северо-западный
Видимость 10 км и более
Отдельные облака на высоте 4000 фута
Рассеянная облачность на высоте 5000 фута
ливни в окрестностях
изменения
С 20-го 09 UTC до 20-го 12 UTC
Ветер 8 Узел от западно-северо-западный

TAF: TXKF 191132Z 1912/2012 31018KT 9999 VCSH SCT040 BKN050 BECMG 2009/2012 29008KT NSW

Метеонаблюдения и прогнозы для более 4000 аэропортов (сводки METAR и TAF).

Имеющиеся станции представлены на карте желтыми и красными точками.

Чтобы увидеть название станции, наведите на нее мышь.

Затем щелкните, чтобы увидеть метеонаблюдения и метеопрогнозы.

Управление картой: чтобы увеличить масштаб, щелкните зеленые кнопки с черным крестиком; чтобы уменьшить масштаб, щелкните зеленую кнопку с тире; для просмотра соседних карт щелкайте зеленые стрелки.


METAR-TAF: